Time;durP1;ratioP1;P1;durP2;ratioP2;P2;SDS_P1;SDS_P2;PMS_P1;PMS_P2;Temp;Humidity;BMP_temperature;BMP_pressure;BME280_temperature;BME280_humidity;BME280_pressure;Samples;Min_cycle;Max_cycle;Signal;HPM_P1;HPM_P2
2023/06/29 00:01:42;;;;;;;;;79.25;65.00;;;;;24.96;100.00;101348.00;5056602;28;45315;-76
2023/06/29 00:04:08;;;;;;;;;73.50;53.50;;;;;24.97;100.00;101349.75;5057373;28;47033;-76
2023/06/29 00:06:36;;;;;;;;;72.50;53.50;;;;;24.94;100.00;101340.94;5056965;28;45370;-77
2023/06/29 00:09:01;;;;;;;;;72.50;58.25;;;;;24.95;100.00;101346.25;5055612;28;46293;-77
2023/06/29 00:11:27;;;;;;;;;72.50;56.25;;;;;24.97;100.00;101340.78;5055685;28;45232;-76
2023/06/29 00:13:53;;;;;;;;;73.00;58.25;;;;;24.94;100.00;101332.81;5048852;28;45522;-77
2023/06/29 00:16:18;;;;;;;;;75.75;62.50;;;;;24.93;100.00;101334.66;5055529;28;61066;-76
2023/06/29 00:18:43;;;;;;;;;76.25;62.50;;;;;24.94;100.00;101340.94;5055920;28;67171;-76
2023/06/29 00:21:09;;;;;;;;;87.50;75.00;;;;;24.93;100.00;101331.03;5056482;28;45276;-76
2023/06/29 00:23:34;;;;;;;;;104.50;88.00;;;;;24.92;100.00;101340.09;5056800;28;45411;-76
2023/06/29 00:26:02;;;;;;;;;105.75;87.75;;;;;24.91;100.00;101336.50;5037456;28;45273;-76
2023/06/29 00:28:27;;;;;;;;;101.50;86.75;;;;;24.91;100.00;101332.94;5047751;28;47498;-76
2023/06/29 00:30:52;;;;;;;;;95.00;78.00;;;;;24.90;100.00;101323.94;5050522;28;45198;-76
2023/06/29 00:33:18;;;;;;;;;91.00;77.00;;;;;24.90;100.00;101323.06;5055263;28;59161;-77
2023/06/29 00:35:43;;;;;;;;;93.25;76.75;;;;;24.91;100.00;101327.53;5055405;28;45437;-76
2023/06/29 00:38:08;;;;;;;;;92.00;76.00;;;;;24.90;100.00;101331.19;5054160;28;71058;-77
2023/06/29 00:40:34;;;;;;;;;85.75;68.75;;;;;24.89;100.00;101314.09;5056382;28;45366;-76
2023/06/29 00:42:59;;;;;;;;;81.50;66.00;;;;;24.88;100.00;101317.75;5055317;28;65545;-76
2023/06/29 00:45:24;;;;;;;;;78.75;68.00;;;;;24.86;100.00;101302.53;5054833;28;45515;-76
2023/06/29 00:47:50;;;;;;;;;77.25;62.25;;;;;24.86;100.00;101297.13;5054774;28;65482;-76
2023/06/29 00:50:17;;;;;;;;;80.50;69.50;;;;;24.83;100.00;101298.13;5037346;28;67771;-76
2023/06/29 00:52:42;;;;;;;;;74.00;59.25;;;;;24.83;100.00;101303.53;5038495;28;45480;-78
2023/06/29 00:55:08;;;;;;;;;74.50;59.50;;;;;24.83;100.00;101292.75;5056622;28;45313;-76
2023/06/29 00:57:33;;;;;;;;;76.50;60.50;;;;;24.82;100.00;101291.88;5037602;28;47278;-77
2023/06/29 01:00:00;;;;;;;;;76.50;57.75;;;;;24.82;100.00;101296.34;5054992;28;67567;-76
2023/06/29 01:02:29;;;;;;;;;76.25;59.50;;;;;24.79;100.00;101281.16;5056505;28;46730;-76
2023/06/29 01:04:55;;;;;;;;;74.75;61.00;;;;;24.78;100.00;101283.94;5056115;28;45437;-76
2023/06/29 01:07:32;;;;;;;;;72.00;56.50;;;;;24.77;100.00;101282.19;5055628;28;47453;-76
2023/06/29 01:09:58;;;;;;;;;72.50;58.00;;;;;24.78;100.00;101281.25;5031514;28;45324;-76
2023/06/29 01:12:24;;;;;;;;;78.00;64.50;;;;;24.76;100.00;101277.69;5056521;28;45340;-76
2023/06/29 01:14:51;;;;;;;;;77.25;59.25;;;;;24.74;100.00;101274.19;5055998;28;45274;-76
2023/06/29 01:17:19;;;;;;;;;78.00;64.50;;;;;24.74;100.00;101279.59;5055310;28;47599;-76
2023/06/29 01:19:47;;;;;;;;;78.50;64.50;;;;;24.74;100.00;101277.78;5037782;28;45390;-76
2023/06/29 01:22:32;;;;;;;;;81.00;65.00;;;;;24.73;100.00;101275.16;5038324;28;46582;-76
2023/06/29 01:24:59;;;;;;;;;75.75;60.50;;;;;24.71;100.00;101290.50;5055634;28;45283;-76
2023/06/29 01:27:24;;;;;;;;;78.25;63.50;;;;;24.68;100.00;101278.03;5054877;28;46334;-78
2023/06/29 01:29:53;;;;;;;;;79.50;63.00;;;;;24.68;100.00;101279.84;5054702;28;71122;-77
2023/06/29 01:32:18;;;;;;;;;78.50;62.00;;;;;24.69;100.00;101284.31;5055516;28;45427;-76
2023/06/29 01:34:44;;;;;;;;;80.00;63.50;;;;;24.68;100.00;101286.13;5055900;28;45363;-76
2023/06/29 01:37:21;;;;;;;;;78.75;64.50;;;;;24.67;100.00;101286.19;5036557;28;71633;-76
2023/06/29 01:39:54;;;;;;;;;77.50;62.50;;;;;24.65;100.00;101267.34;5055497;28;45426;-77
2023/06/29 01:42:23;;;;;;;;;78.25;61.75;;;;;24.67;100.00;101288.91;5037456;28;45299;-76
2023/06/29 01:44:49;;;;;;;;;73.75;59.00;;;;;24.66;100.00;101287.13;5039556;28;45581;-78
2023/06/29 01:47:15;;;;;;;;;70.75;55.75;;;;;24.65;100.00;101283.53;5040345;28;46411;-77
2023/06/29 01:49:41;;;;;;;;;71.50;54.00;;;;;24.61;100.00;101278.31;5040890;28;45493;-76
2023/06/29 01:52:07;;;;;;;;;74.00;55.50;;;;;24.62;100.00;101280.09;5058962;28;45841;-76
2023/06/29 01:54:33;;;;;;;;;71.50;55.50;;;;;24.62;100.00;101285.50;5058838;28;45538;-78
2023/06/29 01:56:58;;;;;;;;;72.25;55.00;;;;;24.61;100.00;101275.63;5058633;28;47364;-76
2023/06/29 01:59:24;;;;;;;;;71.75;54.00;;;;;24.58;100.00;101273.06;5058434;28;45424;-76
2023/06/29 02:01:49;;;;;;;;;71.50;54.25;;;;;24.56;100.00;101268.59;5059071;28;45447;-77
2023/06/29 02:04:14;;;;;;;;;76.75;57.50;;;;;24.56;100.00;101263.22;5057869;28;65456;-76
2023/06/29 02:06:40;;;;;;;;;73.00;53.75;;;;;24.54;100.00;101256.97;5058266;28;61306;-78
2023/06/29 02:09:05;;;;;;;;;71.50;54.00;;;;;24.54;100.00;101265.06;5058356;28;45387;-76
2023/06/29 02:11:31;;;;;;;;;69.25;54.25;;;;;24.53;100.00;101262.44;5059011;28;45475;-77
2023/06/29 02:13:56;;;;;;;;;73.00;55.00;;;;;24.53;100.00;101262.44;5058707;28;45477;-76
2023/06/29 02:16:21;;;;;;;;;68.25;53.50;;;;;24.50;100.00;101251.75;5057833;28;70241;-75
2023/06/29 02:18:47;;;;;;;;;69.00;48.50;;;;;24.50;100.00;101260.75;5057161;28;68664;-76
2023/06/29 02:21:13;;;;;;;;;72.25;52.75;;;;;24.48;100.00;101259.91;5058253;28;45498;-76
2023/06/29 02:23:39;;;;;;;;;74.25;57.50;;;;;24.49;100.00;101258.09;5058545;28;45466;-76
2023/06/29 02:26:04;;;;;;;;;74.50;57.50;;;;;24.48;100.00;101254.53;5056447;28;45469;-77
2023/06/29 02:28:29;;;;;;;;;73.00;53.75;;;;;24.47;100.00;101258.16;5056657;28;45499;-76
2023/06/29 02:30:55;;;;;;;;;69.50;51.75;;;;;24.47;100.00;101251.91;5056652;28;56115;-77
2023/06/29 02:33:20;;;;;;;;;66.50;52.50;;;;;24.46;100.00;101260.94;5057530;28;45606;-77
2023/06/29 02:35:45;;;;;;;;;68.00;53.00;;;;;24.45;100.00;101243.88;5056616;28;68684;-76
2023/06/29 02:38:11;;;;;;;;;68.00;49.25;;;;;24.44;100.00;101247.47;5056958;28;68251;-76
2023/06/29 02:40:36;;;;;;;;;67.25;51.00;;;;;24.42;100.00;101245.78;5058239;28;49018;-76
2023/06/29 02:43:01;;;;;;;;;61.50;47.50;;;;;24.42;100.00;101240.41;5058337;28;45238;-76
2023/06/29 02:45:27;;;;;;;;;62.00;47.25;;;;;24.41;100.00;101238.66;5057256;28;67126;-77
2023/06/29 02:47:52;;;;;;;;;57.75;44.75;;;;;24.40;100.00;101240.47;5057763;28;47892;-76
2023/06/29 02:50:18;;;;;;;;;57.00;44.25;;;;;24.39;100.00;101235.09;5057860;28;45350;-76
2023/06/29 02:52:43;;;;;;;;;57.00;45.50;;;;;24.40;100.00;101242.28;5058426;28;45442;-77
2023/06/29 02:55:09;;;;;;;;;62.00;47.75;;;;;24.39;100.00;101240.50;5057709;28;52081;-76
2023/06/29 02:57:34;;;;;;;;;54.00;43.50;;;;;24.38;100.00;101239.63;5056201;28;45319;-76
2023/06/29 02:59:59;;;;;;;;;63.25;49.50;;;;;24.39;100.00;101243.22;5057241;28;64618;-76
2023/06/29 03:02:25;;;;;;;;;56.75;45.25;;;;;24.37;100.00;101240.56;5056697;28;61001;-76
2023/06/29 03:04:50;;;;;;;;;58.50;44.00;;;;;24.37;100.00;101239.69;5057318;28;67406;-78
2023/06/29 03:07:15;;;;;;;;;53.75;42.00;;;;;24.33;100.00;101240.72;5055894;28;68516;-76
2023/06/29 03:09:41;;;;;;;;;56.25;42.75;;;;;24.34;100.00;101240.66;5057181;28;64618;-76
2023/06/29 03:12:08;;;;;;;;;53.00;40.25;;;;;24.33;100.00;101240.72;5057082;28;57109;-76
2023/06/29 03:14:33;;;;;;;;;54.25;42.25;;;;;24.29;100.00;101230.06;5039577;28;47895;-76
2023/06/29 03:16:59;;;;;;;;;50.50;37.25;;;;;24.29;100.00;101237.28;5056835;28;67518;-76
2023/06/29 03:19:24;;;;;;;;;48.25;35.75;;;;;24.28;100.00;101233.69;5039779;28;45455;-76
2023/06/29 03:21:49;;;;;;;;;43.33;34.00;;;;;24.27;100.00;101239.16;5056622;28;64545;-76
2023/06/29 03:24:15;;;;;;;;;46.33;35.67;;;;;24.25;100.00;101235.63;5056386;28;67633;-76
2023/06/29 03:26:40;;;;;;;;;44.00;33.33;;;;;24.26;100.00;101242.78;5055485;28;47669;-75
2023/06/29 03:29:06;;;;;;;;;45.33;33.67;;;;;24.23;100.00;101238.38;5056752;28;45491;-76
2023/06/29 03:31:31;;;;;;;;;44.33;34.67;;;;;24.23;100.00;101238.38;5036693;28;45592;-76
2023/06/29 03:33:58;;;;;;;;;19.00;17.67;;;;;24.23;100.00;101234.81;5057054;28;50446;-77
2023/06/29 03:36:23;;;;;;;;;38.67;31.67;;;;;24.22;100.00;101242.03;5057064;28;45482;-76
2023/06/29 03:38:49;;;;;;;;;40.00;31.67;;;;;24.20;100.00;101235.81;5057415;28;45394;-76
2023/06/29 03:41:14;;;;;;;;;44.00;31.00;;;;;24.21;100.00;101239.41;5057104;28;45403;-76
2023/06/29 03:43:39;;;;;;;;;41.33;33.00;;;;;24.20;100.00;101234.94;5057248;28;45486;-76
2023/06/29 03:46:05;;;;;;;;;36.33;29.67;;;;;24.19;100.00;101238.59;5056146;28;70451;-77
2023/06/29 03:48:30;;;;;;;;;47.67;32.67;;;;;24.17;100.00;101232.34;5056548;28;59819;-75
2023/06/29 03:50:57;;;;;;;;;40.33;35.33;;;;;24.16;100.00;101233.28;5056871;28;45339;-77
2023/06/29 03:53:22;;;;;;;;;45.25;34.50;;;;;24.16;100.00;101231.47;5056838;28;52880;-76
2023/06/29 03:55:48;;;;;;;;;46.25;38.00;;;;;24.15;100.00;101227.03;5059611;28;45446;-76
2023/06/29 03:58:14;;;;;;;;;38.67;30.67;;;;;24.17;100.00;101232.34;5056859;28;45515;-76
2023/06/29 04:00:39;;;;;;;;;34.00;29.00;;;;;24.12;100.00;101229.81;5056449;28;45485;-76
2023/06/29 04:03:05;;;;;;;;;36.33;30.00;;;;;24.15;100.00;101235.13;5056195;28;68019;-76
2023/06/29 04:05:30;;;;;;;;;32.00;28.33;;;;;24.14;100.00;101233.38;5056430;28;45228;-76
2023/06/29 04:07:56;;;;;;;;;34.67;30.67;;;;;24.11;100.00;101222.69;5055986;28;45263;-76
2023/06/29 04:10:21;;;;;;;;;32.33;30.33;;;;;24.12;100.00;101213.63;5056522;28;45462;-76
2023/06/29 04:12:46;;;;;;;;;33.33;30.33;;;;;24.12;100.00;101216.34;5055878;28;66302;-76
2023/06/29 04:15:12;;;;;;;;;39.67;32.33;;;;;24.11;100.00;101219.97;5056128;28;60329;-77
2023/06/29 04:17:37;;;;;;;;;37.67;32.33;;;;;24.11;100.00;101211.88;5055916;28;59594;-78
2023/06/29 04:20:03;;;;;;;;;32.67;28.33;;;;;24.11;100.00;101211.88;5057022;28;45428;-76
2023/06/29 04:22:28;;;;;;;;;37.00;31.00;;;;;24.12;100.00;101215.47;5056156;28;46818;-76
2023/06/29 04:24:54;;;;;;;;;38.67;29.67;;;;;24.12;100.00;101210.94;5055818;28;58950;-77
2023/06/29 04:27:19;;;;;;;;;31.33;28.33;;;;;24.10;100.00;101203.84;5055577;28;56134;-77
2023/06/29 04:29:44;;;;;;;;;31.67;29.33;;;;;24.10;100.00;101206.56;5055495;28;63929;-77
2023/06/29 04:32:10;;;;;;;;;26.00;24.33;;;;;24.09;100.00;101205.69;5055525;28;58907;-76
2023/06/29 04:34:35;;;;;;;;;33.00;29.33;;;;;24.10;100.00;101212.81;5056264;28;48442;-76
2023/06/29 04:37:02;;;;;;;;;35.33;27.00;;;;;24.10;100.00;101210.13;5055901;28;63322;-76
2023/06/29 04:39:28;;;;;;;;;31.33;27.67;;;;;24.09;100.00;101204.81;5056563;28;45493;-77
2023/06/29 04:42:00;;;;;;;;;29.67;26.33;;;;;24.08;100.00;101209.31;5056135;28;46229;-77
2023/06/29 04:44:31;;;;;;;;;33.00;28.00;;;;;24.09;100.00;101211.06;5056419;28;45532;-76
2023/06/29 04:46:59;;;;;;;;;31.67;26.33;;;;;24.09;100.00;101205.69;5056297;28;45304;-77
2023/06/29 04:49:27;;;;;;;;;32.67;26.00;;;;;24.08;100.00;101206.63;5056950;28;45614;-77
2023/06/29 04:51:55;;;;;;;;;29.33;26.33;;;;;24.08;100.00;101212.03;5055641;28;47741;-77
2023/06/29 04:54:21;;;;;;;;;31.33;27.67;;;;;24.09;100.00;101216.47;5056335;28;45506;-76
2023/06/29 04:56:46;;;;;;;;;30.00;28.00;;;;;24.11;100.00;101224.50;5055400;28;45588;-77
2023/06/29 04:59:12;;;;;;;;;33.67;29.67;;;;;24.12;100.00;101224.44;5055015;28;45663;-76
2023/06/29 05:01:37;;;;;;;;;26.33;23.67;;;;;24.11;100.00;101232.59;5054469;28;69454;-76
2023/06/29 05:04:02;;;;;;;;;33.67;27.00;;;;;24.12;100.00;101229.81;5055268;28;70467;-76
2023/06/29 05:06:28;;;;;;;;;33.67;28.33;;;;;24.10;100.00;101220.94;5056545;28;45433;-76
2023/06/29 05:08:53;;;;;;;;;32.00;28.33;;;;;24.12;100.00;101231.66;5055411;28;45941;-76
2023/06/29 05:11:19;;;;;;;;;35.33;29.67;;;;;24.11;100.00;101230.78;5055647;28;46413;-78
2023/06/29 05:13:44;;;;;;;;;32.67;29.33;;;;;24.09;100.00;101212.91;5055960;28;47134;-77
2023/06/29 05:16:09;;;;;;;;;31.33;26.67;;;;;24.10;100.00;101226.31;5055593;28;55063;-76
2023/06/29 05:18:36;;;;;;;;;28.33;24.00;;;;;24.11;100.00;101224.50;5056240;28;45442;-74
2023/06/29 05:21:03;;;;;;;;;31.33;28.00;;;;;24.11;100.00;101227.19;5061089;28;46735;-76
2023/06/29 05:23:29;;;;;;;;;33.67;28.00;;;;;24.11;100.00;101227.19;5059022;28;45466;-75
2023/06/29 05:25:54;;;;;;;;;32.67;27.33;;;;;24.11;100.00;101227.19;5184540;22;46810;-77
2023/06/29 05:28:19;;;;;;;;;34.67;30.33;;;;;24.12;100.00;101223.56;5078277;28;51183;-77
2023/06/29 05:30:45;;;;;;;;;29.00;25.00;;;;;24.12;100.00;101231.66;5073933;28;46276;-78
2023/06/29 05:33:10;;;;;;;;;36.00;28.00;;;;;24.12;100.00;101232.53;5059689;28;63430;-79
2023/06/29 05:35:35;;;;;;;;;31.67;27.33;;;;;24.11;100.00;101232.59;5074836;28;54999;-77
2023/06/29 05:38:01;;;;;;;;;32.67;29.67;;;;;24.11;100.00;101230.78;5079331;28;45581;-77
2023/06/29 05:40:27;;;;;;;;;33.33;27.67;;;;;24.11;100.00;101227.19;5076271;28;45410;-77
2023/06/29 05:42:52;;;;;;;;;31.67;29.67;;;;;24.12;100.00;101228.94;5075203;28;45407;-77
2023/06/29 05:45:18;;;;;;;;;34.00;25.33;;;;;24.15;100.00;101235.13;5075656;28;64066;-77
2023/06/29 05:47:43;;;;;;;;;34.33;27.67;;;;;24.16;100.00;101225.19;5068788;28;61608;-77
2023/06/29 05:50:09;;;;;;;;;36.67;30.00;;;;;24.17;100.00;101221.56;5071490;28;45719;-77
2023/06/29 05:52:34;;;;;;;;;35.00;30.00;;;;;24.25;100.00;101230.25;5073822;28;45443;-78
2023/06/29 05:55:00;;;;;;;;;29.67;27.33;;;;;24.29;100.00;101231.88;5068030;27;45548;-78
2023/06/29 05:57:25;;;;;;;;;31.33;29.00;;;;;24.32;100.00;101231.75;5079002;27;45800;-78
2023/06/29 05:59:51;;;;;;;;;37.33;27.00;;;;;24.36;100.00;101233.44;5077102;27;66163;-78
2023/06/29 06:02:17;;;;;;;;;40.00;30.33;;;;;24.38;100.00;101227.97;5079121;27;45245;-78
2023/06/29 06:04:42;;;;;;;;;33.67;28.00;;;;;24.39;100.00;101221.59;5079095;28;45343;-78
2023/06/29 06:07:07;;;;;;;;;31.00;27.00;;;;;24.43;100.00;101224.13;5059635;28;58326;-77
2023/06/29 06:09:33;;;;;;;;;30.00;26.33;;;;;24.45;100.00;101221.34;5077890;28;69838;-77
2023/06/29 06:11:58;;;;;;;;;37.00;30.67;;;;;24.45;100.00;101219.56;5077281;28;66795;-78
2023/06/29 06:14:23;;;;;;;;;33.33;28.00;;;;;24.47;100.00;101228.47;5078185;28;51913;-79
2023/06/29 06:16:49;;;;;;;;;40.00;30.67;;;;;24.47;100.00;101220.38;5076605;27;56226;-79
2023/06/29 06:19:14;;;;;;;;;31.00;28.67;;;;;24.47;100.00;101223.06;5075862;28;71398;-81
2023/06/29 06:21:40;;;;;;;;;34.33;27.33;;;;;24.48;100.00;101215.84;5076112;28;68221;-79
2023/06/29 06:24:05;;;;;;;;;35.67;28.33;;;;;24.42;100.00;101211.59;5070569;28;45525;-80
2023/06/29 06:26:31;;;;;;;;;34.00;27.33;;;;;24.46;100.00;101220.44;5070747;28;45553;-78
2023/06/29 06:28:56;;;;;;;;;30.33;24.67;;;;;24.45;100.00;101219.56;5069376;28;45769;-77
2023/06/29 06:31:22;;;;;;;;;30.33;27.33;;;;;24.46;100.00;101224.03;5069569;28;68278;-78
2023/06/29 06:33:47;;;;;;;;;32.00;28.00;;;;;24.45;100.00;101226.75;5075648;28;45469;-77
2023/06/29 06:36:12;;;;;;;;;34.00;27.33;;;;;24.44;100.00;101225.00;5076715;28;62439;-79
2023/06/29 06:38:38;;;;;;;;;33.33;29.67;;;;;24.43;100.00;101224.13;5075807;28;67178;-78
2023/06/29 06:41:03;;;;;;;;;32.33;30.67;;;;;24.43;100.00;101225.94;5075543;28;45442;-79
2023/06/29 06:43:28;;;;;;;;;40.00;29.33;;;;;24.44;100.00;101225.00;5076871;28;55909;-79
2023/06/29 06:45:54;;;;;;;;;31.67;26.00;;;;;24.45;100.00;101229.47;5071756;28;45492;-78
2023/06/29 06:48:19;;;;;;;;;33.67;28.33;;;;;24.43;100.00;101220.56;5077095;28;55777;-79
2023/06/29 06:50:44;;;;;;;;;31.00;29.33;;;;;24.41;100.00;101217.94;5077378;28;45338;-79
2023/06/29 06:53:10;;;;;;;;;30.67;24.67;;;;;24.38;100.00;101219.84;5072336;27;65366;-78
2023/06/29 06:55:35;;;;;;;;;31.00;25.67;;;;;24.35;100.00;101222.66;5076880;28;51686;-79
2023/06/29 06:58:01;;;;;;;;;30.33;29.00;;;;;24.35;100.00;101226.28;5069926;28;46317;-79
2023/06/29 07:00:27;;;;;;;;;22.67;21.33;;;;;24.34;100.00;101229.84;5069063;28;62993;-79
2023/06/29 07:02:52;;;;;;;;;35.33;30.00;;;;;24.34;100.00;101229.84;5069086;28;45497;-78
2023/06/29 07:05:17;;;;;;;;;35.00;25.00;;;;;24.36;100.00;101228.03;5072597;28;57820;-79
2023/06/29 07:07:45;;;;;;;;;29.67;29.33;;;;;24.37;100.00;101223.50;5065663;28;70117;-78
2023/06/29 07:10:11;;;;;;;;;38.67;28.00;;;;;24.39;100.00;101218.91;5073035;28;45411;-79
2023/06/29 07:12:36;;;;;;;;;37.00;30.67;;;;;24.37;100.00;101216.28;5077338;28;45470;-79
2023/06/29 07:15:02;;;;;;;;;36.33;31.00;;;;;24.46;100.00;101223.16;5076416;28;45548;-79
2023/06/29 07:17:28;;;;;;;;;43.00;30.67;;;;;24.46;100.00;101225.84;5055363;28;45887;-80
2023/06/29 07:19:53;;;;;;;;;31.33;25.33;;;;;24.47;100.00;101216.78;5075964;28;52209;-78
2023/06/29 07:22:18;;;;;;;;;34.67;29.67;;;;;24.48;100.00;101227.53;5076670;28;64093;-80
2023/06/29 07:24:44;;;;;;;;;33.67;29.00;;;;;24.49;100.00;101220.31;5077866;28;45505;-80
2023/06/29 07:27:09;;;;;;;;;43.00;31.00;;;;;24.49;100.00;101218.47;5076306;28;65751;-78
2023/06/29 07:29:34;;;;;;;;;29.67;29.00;;;;;24.50;100.00;101220.25;5075325;28;45469;-80
2023/06/29 07:32:00;;;;;;;;;31.33;30.00;;;;;24.54;100.00;101221.88;5074314;28;45505;-78
2023/06/29 07:34:25;;;;;;;;;36.33;32.00;;;;;24.55;100.00;101223.66;5059150;28;45346;-78
2023/06/29 07:36:51;;;;;;;;;36.67;30.67;;;;;24.56;100.00;101217.31;5072342;28;45557;-78
2023/06/29 07:39:17;;;;;;;;;37.00;31.33;;;;;24.62;100.00;101218.00;5068037;28;45367;-78
2023/06/29 07:41:43;;;;;;;;;35.00;29.33;;;;;24.66;100.00;101216.91;5077282;28;45370;-78
2023/06/29 07:44:08;;;;;;;;;43.67;33.33;;;;;24.70;100.00;101222.13;5049494;28;45572;-78
2023/06/29 07:46:34;;;;;;;;;41.67;34.00;;;;;24.74;100.00;101223.75;5063809;28;66861;-78
2023/06/29 07:48:59;;;;;;;;;39.00;29.67;;;;;24.81;100.00;101217.16;5073793;28;45363;-78
2023/06/29 07:51:26;;;;;;;;;37.00;28.33;;;;;24.82;100.00;101209.91;5073092;28;45710;-78
2023/06/29 07:53:52;;;;;;;;;44.33;31.33;;;;;24.86;100.00;101216.06;5074502;27;45366;-78
2023/06/29 07:56:18;;;;;;;;;35.67;30.33;;;;;24.94;100.00;101208.53;5065880;27;46030;-79
2023/06/29 07:58:43;;;;;;;;;33.67;30.00;;;;;25.01;100.00;101210.03;5072923;28;45462;-80
2023/06/29 08:01:09;;;;;;;;;39.00;30.33;;;;;25.06;100.00;101205.34;5074670;27;45510;-80
2023/06/29 08:03:34;;;;;;;;;37.00;30.33;;;;;25.11;100.00;101211.44;5074031;28;53497;-76
2023/06/29 08:05:59;;;;;;;;;36.33;29.00;;;;;25.16;100.00;101208.53;5052413;28;46231;-76
2023/06/29 08:08:28;;;;;;;;;30.00;29.33;;;;;25.19;100.00;101205.66;5074611;28;63393;-77
2023/06/29 08:10:54;;;;;;;;;34.33;27.67;;;;;25.24;100.00;101192.84;5074373;27;45412;-78
2023/06/29 08:13:19;;;;;;;;;31.67;29.67;;;;;25.31;100.00;101203.31;5071847;28;45299;-76
2023/06/29 08:15:44;;;;;;;;;34.00;28.67;;;;;25.40;100.00;101204.72;5072909;27;45641;-77
2023/06/29 08:18:10;;;;;;;;;34.00;31.33;;;;;25.46;100.00;101195.44;5074448;28;63624;-78
2023/06/29 08:20:35;;;;;;;;;36.67;30.33;;;;;25.55;100.00;101193.22;5072197;28;52921;-77
2023/06/29 08:23:00;;;;;;;;;31.33;30.00;;;;;25.64;100.00;101189.22;5074340;28;53593;-77
2023/06/29 08:25:26;;;;;;;;;38.33;30.67;;;;;25.69;100.00;101189.88;5069103;27;67668;-78
2023/06/29 08:27:51;;;;;;;;;39.67;29.67;;;;;25.76;100.00;101190.50;5075109;27;45600;-79
2023/06/29 08:30:16;;;;;;;;;36.50;33.00;;;;;25.78;100.00;101194.00;5076076;28;45486;-77
2023/06/29 08:32:43;;;;;;;;;42.67;31.33;;;;;25.80;100.00;101192.13;5072308;28;50475;-78
2023/06/29 08:35:09;;;;;;;;;35.00;31.33;;;;;25.83;100.00;101192.88;5072031;28;46363;-78
2023/06/29 08:37:34;;;;;;;;;35.00;30.67;;;;;25.83;100.00;101189.25;5064833;28;45305;-78
2023/06/29 08:40:00;;;;;;;;;42.67;32.67;;;;;25.86;100.00;101197.25;5077147;28;45461;-77
2023/06/29 08:42:26;;;;;;;;;41.00;32.67;;;;;25.88;100.00;101197.16;5070270;28;45486;-78
2023/06/29 08:44:52;;;;;;;;;32.33;30.00;;;;;25.93;100.00;101193.28;5057196;28;47184;-77
2023/06/29 08:47:18;;;;;;;;;39.33;30.67;;;;;25.97;100.00;101200.31;5066722;28;45351;-79
2023/06/29 08:49:45;;;;;;;;;35.67;30.33;;;;;25.98;100.00;101187.66;5056761;28;58831;-79
2023/06/29 08:52:18;;;;;;;;;36.67;26.00;;;;;26.03;100.00;101189.22;5070334;28;45445;-78
2023/06/29 08:54:44;;;;;;;;;38.67;33.33;;;;;26.09;100.00;101186.19;5055218;28;47123;-78
2023/06/29 08:57:10;;;;;;;;;36.33;30.00;;;;;26.18;100.00;101184.88;5070420;28;68658;-77
2023/06/29 08:59:38;;;;;;;;;33.00;28.67;;;;;26.23;100.00;101181.97;5076061;28;45584;-78
2023/06/29 09:02:05;;;;;;;;;31.00;26.33;;;;;26.24;100.00;101178.31;5059947;28;45376;-80
2023/06/29 09:04:30;;;;;;;;;40.00;33.00;;;;;26.22;100.00;101174.81;5078208;27;46328;-77
2023/06/29 09:06:58;;;;;;;;;36.67;30.00;;;;;26.31;100.00;101179.75;5072609;28;45802;-80
2023/06/29 09:09:24;;;;;;;;;36.00;30.33;;;;;26.37;100.00;101171.34;5076997;28;45565;-77
2023/06/29 09:11:50;;;;;;;;;29.67;26.67;;;;;26.47;100.00;101169.06;5059667;28;45717;-80
2023/06/29 09:14:15;;;;;;;;;33.33;26.67;;;;;26.58;100.00;101177.53;5077068;28;47176;-80
2023/06/29 09:16:52;;;;;;;;;36.00;32.00;;;;;26.66;100.00;101174.44;5055287;28;58792;-80
2023/06/29 09:19:18;;;;;;;;;33.33;30.00;;;;;26.71;100.00;101170.56;5077895;28;45519;-77
2023/06/29 09:21:45;;;;;;;;;40.33;30.00;;;;;26.71;100.00;101164.25;5080005;28;45500;-76
2023/06/29 09:24:11;;;;;;;;;41.33;32.67;;;;;26.71;100.00;101169.69;5075322;28;46694;-77
2023/06/29 09:26:36;;;;;;;;;29.67;25.00;;;;;26.73;100.00;101170.47;5080142;28;45403;-77
2023/06/29 09:29:03;;;;;;;;;33.33;27.00;;;;;26.73;100.00;101162.34;5078121;28;62724;-78
2023/06/29 09:31:32;;;;;;;;;41.33;33.00;;;;;26.73;100.00;101167.75;5075371;28;45293;-78
2023/06/29 09:34:17;;;;;;;;;35.67;30.67;;;;;26.74;100.00;101169.50;5073010;28;46362;-78
2023/06/29 09:36:43;;;;;;;;;36.67;30.00;;;;;26.75;100.00;101172.16;5078968;28;45470;-78
2023/06/29 09:39:09;;;;;;;;;41.33;33.00;;;;;26.82;100.00;101170.88;5077110;28;45573;-77
2023/06/29 09:42:09;;;;;;;;;40.67;30.67;;;;;26.96;100.00;101177.44;5076283;28;45351;-77
2023/06/29 09:44:36;;;;;;;;;40.67;32.00;;;;;27.00;100.00;101174.47;5026078;28;47007;-77
2023/06/29 09:47:05;;;;;;;;;64.75;49.00;;;;;26.94;100.00;101177.50;5071139;28;45475;-77
2023/06/29 09:49:31;;;;;;;;;34.67;30.33;;;;;26.88;100.00;101178.69;5068997;28;45246;-77
2023/06/29 09:52:03;;;;;;;;;113.50;93.00;;;;;26.86;100.00;101175.19;5073300;28;45658;-78
2023/06/29 09:54:37;;;;;;;;;42.33;35.00;;;;;26.95;100.00;101175.66;5071827;28;46574;-80
2023/06/29 09:57:03;;;;;;;;;46.25;36.00;;;;;27.05;100.00;101182.34;5064325;28;45513;-77
2023/06/29 09:59:31;;;;;;;;;36.67;29.67;;;;;27.12;100.00;101178.44;5063801;28;45145;-80
2023/06/29 10:01:57;;;;;;;;;32.67;28.00;;;;;27.13;100.00;101180.16;5075782;28;48245;-78
2023/06/29 10:04:24;;;;;;;;;29.67;28.33;;;;;27.12;100.00;101181.13;5067467;28;45761;-77
2023/06/29 10:06:56;;;;;;;;;31.67;26.00;;;;;27.17;100.00;101186.31;5064040;28;45588;-78
2023/06/29 10:09:21;;;;;;;;;40.33;31.33;;;;;27.21;100.00;101186.03;5049602;28;45386;-80
2023/06/29 10:11:51;;;;;;;;;62.00;47.75;;;;;27.24;100.00;101187.75;5059065;28;45503;-80
2023/06/29 10:14:18;;;;;;;;;63.50;48.75;;;;;27.24;100.00;101185.03;5076938;28;46714;-80
2023/06/29 10:16:48;;;;;;;;;54.75;41.75;;;;;27.30;100.00;101190.13;5072189;28;45441;-77
2023/06/29 10:19:18;;;;;;;;;42.33;32.00;;;;;27.30;100.00;101187.41;5056950;28;45456;-77
2023/06/29 10:21:45;;;;;;;;;40.33;32.00;;;;;27.24;100.00;101179.59;5074135;28;45273;-79
2023/06/29 10:24:13;;;;;;;;;35.00;31.67;;;;;27.23;100.00;101188.69;5054485;28;47785;-80
2023/06/29 10:26:39;;;;;;;;;34.67;31.00;;;;;27.19;100.00;101184.38;5065462;28;45343;-80
2023/06/29 10:29:06;;;;;;;;;38.33;33.00;;;;;27.18;100.00;101185.34;5057097;28;59953;-78
2023/06/29 10:31:34;;;;;;;;;40.67;31.33;;;;;27.16;100.00;101185.41;5056915;28;45383;-78
2023/06/29 10:34:00;;;;;;;;;39.00;30.67;;;;;27.17;100.00;101178.19;5074922;28;46736;-78
2023/06/29 10:36:25;;;;;;;;;38.00;31.33;;;;;27.18;100.00;101171.81;5077127;28;45443;-78
2023/06/29 10:38:51;;;;;;;;;38.00;31.67;;;;;27.15;100.00;101173.69;5073225;28;45418;-78
2023/06/29 10:41:27;;;;;;;;;37.00;32.67;;;;;27.14;100.00;101174.66;5076299;28;45597;-78
2023/06/29 10:43:59;;;;;;;;;40.00;33.33;;;;;27.14;100.00;101173.78;5071557;28;46629;-78
2023/06/29 10:46:46;;;;;;;;;45.67;36.00;;;;;27.12;100.00;101167.59;5067026;28;45372;-78
2023/06/29 10:49:25;;;;;;;;;46.33;36.00;;;;;27.11;100.00;101165.81;5078452;28;45470;-80
2023/06/29 10:51:52;;;;;;;;;42.67;32.00;;;;;27.08;100.00;101158.72;5078702;28;45386;-77
2023/06/29 10:54:23;;;;;;;;;42.00;33.00;;;;;27.16;100.00;101158.31;5059001;28;47239;-80
2023/06/29 10:57:06;;;;;;;;;43.67;33.67;;;;;27.28;100.00;101154.09;5077141;28;45416;-78
2023/06/29 10:59:33;;;;;;;;;42.67;32.67;;;;;27.43;100.00;101147.81;5054412;28;45354;-79